Time;durP1;ratioP1;P1;durP2;ratioP2;P2;SDS_P1;SDS_P2;PMS_P1;PMS_P2;Temp;Humidity;BMP_temperature;BMP_pressure;BME280_temperature;BME280_humidity;BME280_pressure;Samples;Min_cycle;Max_cycle;Signal;HPM_P1;HPM_P2
2024/04/17 00:00:17;;;;;;;;;;;22.00;40.40;;;;;;3051542;19;4705;-24
2024/04/17 00:01:17;;;;;;;;;;;22.00;40.40;;;;;;3031185;19;4543;-25
2024/04/17 00:02:18;;;;;;;;;;;22.00;40.40;;;;;;3052665;19;4699;-23
2024/04/17 00:03:19;;;;;;;;;;;22.00;40.40;;;;;;3051268;19;4679;-26
2024/04/17 00:04:20;;;;;;;;;;;22.00;40.40;;;;;;3030951;19;4653;-23
2024/04/17 00:05:20;;;;;;;;;;;22.00;40.40;;;;;;3051326;19;4664;-23
2024/04/17 00:06:21;;;;;;;;;;;22.00;40.50;;;;;;3031388;19;4837;-24
2024/04/17 00:07:22;;;;;;;;;;;22.00;40.50;;;;;;3050810;19;4690;-25
2024/04/17 00:08:22;;;;;;;;;;;22.00;40.40;;;;;;3051288;19;4865;-23
2024/04/17 00:09:23;;;;;;;;;;;22.00;40.50;;;;;;3029543;19;4662;-23
2024/04/17 00:10:23;;;;;;;;;;;22.00;40.50;;;;;;3052398;19;4659;-26
2024/04/17 00:11:24;;;;;;;;;;;22.00;40.50;;;;;;3052812;19;4741;-25
2024/04/17 00:12:25;;;;;;;;;;;22.00;40.50;;;;;;3028951;19;4607;-26
2024/04/17 00:13:25;;;;;;;;;;;21.90;40.50;;;;;;3052744;19;4644;-24
2024/04/17 00:14:26;;;;;;;;;;;22.00;40.60;;;;;;3029059;19;4677;-24
2024/04/17 00:15:27;;;;;;;;;;;22.00;40.60;;;;;;3051573;19;4678;-24
2024/04/17 00:16:27;;;;;;;;;;;21.90;40.60;;;;;;3052061;19;4678;-24
2024/04/17 00:17:28;;;;;;;;;;;21.90;40.50;;;;;;3029942;19;4585;-24
2024/04/17 00:18:28;;;;;;;;;;;22.00;40.60;;;;;;3050667;19;4680;-23
2024/04/17 00:19:29;;;;;;;;;;;21.90;40.60;;;;;;3051660;19;4716;-25
2024/04/17 00:20:30;;;;;;;;;;;21.90;40.50;;;;;;3029559;19;4612;-23
2024/04/17 00:21:30;;;;;;;;;;;21.90;40.70;;;;;;3050992;19;4659;-25
2024/04/17 00:22:31;;;;;;;;;;;21.90;40.60;;;;;;3030098;19;4706;-23
2024/04/17 00:23:32;;;;;;;;;;;21.90;40.60;;;;;;3051719;19;4665;-23
2024/04/17 00:24:32;;;;;;;;;;;21.90;40.70;;;;;;3051780;19;4709;-24
2024/04/17 00:25:33;;;;;;;;;;;21.90;40.70;;;;;;3030002;19;4573;-23
2024/04/17 00:26:33;;;;;;;;;;;21.90;40.70;;;;;;3050639;19;4847;-24
2024/04/17 00:27:34;;;;;;;;;;;21.90;40.70;;;;;;3052337;19;4676;-24
2024/04/17 00:28:35;;;;;;;;;;;21.90;40.70;;;;;;3029859;19;4709;-23
2024/04/17 00:29:35;;;;;;;;;;;21.90;40.70;;;;;;3050877;19;4705;-23
2024/04/17 00:30:36;;;;;;;;;;;21.80;41.30;;;;;;3030560;19;4685;-23
2024/04/17 00:31:37;;;;;;;;;;;21.90;40.70;;;;;;3050978;19;4692;-23
2024/04/17 00:32:37;;;;;;;;;;;21.90;40.70;;;;;;3052418;19;4710;-23
2024/04/17 00:33:38;;;;;;;;;;;21.90;40.70;;;;;;3029485;19;4655;-24
2024/04/17 00:34:39;;;;;;;;;;;21.80;40.70;;;;;;3052047;19;4612;-24
2024/04/17 00:35:39;;;;;;;;;;;21.90;40.90;;;;;;3029726;19;4719;-26
2024/04/17 00:36:40;;;;;;;;;;;21.80;40.70;;;;;;3052344;19;4746;-23
2024/04/17 00:37:41;;;;;;;;;;;21.80;40.70;;;;;;3050251;19;4731;-25
2024/04/17 00:38:41;;;;;;;;;;;21.80;40.80;;;;;;3030178;19;4684;-24
2024/04/17 00:39:42;;;;;;;;;;;21.80;40.70;;;;;;3050802;19;4694;-23
2024/04/17 00:40:42;;;;;;;;;;;21.80;40.70;;;;;;3053696;19;4681;-23
2024/04/17 00:41:43;;;;;;;;;;;21.80;40.80;;;;;;3031750;19;4603;-26
2024/04/17 00:42:44;;;;;;;;;;;21.80;40.80;;;;;;3055143;19;4680;-24
2024/04/17 00:43:44;;;;;;;;;;;21.80;40.70;;;;;;3032934;19;4744;-24
2024/04/17 00:44:45;;;;;;;;;;;21.80;40.80;;;;;;3054695;19;4683;-24
2024/04/17 00:45:47;;;;;;;;;;;21.80;40.80;;;;;;3055411;19;4648;-23
2024/04/17 00:46:47;;;;;;;;;;;21.80;40.80;;;;;;3033329;19;4695;-23
2024/04/17 00:47:48;;;;;;;;;;;21.80;40.80;;;;;;3053163;19;4714;-23
2024/04/17 00:48:48;;;;;;;;;;;21.80;40.90;;;;;;3053098;19;4639;-24
2024/04/17 00:49:50;;;;;;;;;;;21.70;40.80;;;;;;3031980;19;4929;-23
2024/04/17 00:50:51;;;;;;;;;;;21.80;41.00;;;;;;3053450;19;4784;-23
2024/04/17 00:51:51;;;;;;;;;;;21.80;41.00;;;;;;3032237;19;4711;-24
2024/04/17 00:52:52;;;;;;;;;;;21.80;40.90;;;;;;3055177;19;4658;-23
2024/04/17 00:53:53;;;;;;;;;;;21.80;40.90;;;;;;3054222;19;4856;-23
2024/04/17 00:54:53;;;;;;;;;;;21.80;40.90;;;;;;3033639;19;4611;-25
2024/04/17 00:55:54;;;;;;;;;;;21.70;40.90;;;;;;3054290;19;5237;-23
2024/04/17 00:56:55;;;;;;;;;;;21.70;40.90;;;;;;3051129;19;4679;-24
2024/04/17 00:57:56;;;;;;;;;;;21.70;40.90;;;;;;3041496;19;5109;-23
2024/04/17 00:58:56;;;;;;;;;;;21.80;41.00;;;;;;3054310;19;4645;-23
2024/04/17 00:59:58;;;;;;;;;;;21.80;41.00;;;;;;3032618;19;4740;-24
2024/04/17 01:00:58;;;;;;;;;;;21.70;41.00;;;;;;3054627;19;4639;-24
2024/04/17 01:01:59;;;;;;;;;;;21.70;41.00;;;;;;3053660;19;4594;-24
2024/04/17 01:02:59;;;;;;;;;;;21.70;41.00;;;;;;3031205;19;4633;-25
2024/04/17 01:04:00;;;;;;;;;;;21.70;40.90;;;;;;3053246;19;4694;-23
2024/04/17 01:05:01;;;;;;;;;;;21.70;41.00;;;;;;3031391;19;4744;-23
2024/04/17 01:06:01;;;;;;;;;;;21.70;40.90;;;;;;3054641;19;4644;-23
2024/04/17 01:07:02;;;;;;;;;;;21.70;41.00;;;;;;3054424;19;4639;-23
2024/04/17 01:08:04;;;;;;;;;;;21.70;41.50;;;;;;3032069;19;4686;-23
2024/04/17 01:09:05;;;;;;;;;;;21.70;41.00;;;;;;3054160;19;4635;-23
2024/04/17 01:10:06;;;;;;;;;;;21.70;41.00;;;;;;3055003;19;4658;-26
2024/04/17 01:11:06;;;;;;;;;;;21.70;41.00;;;;;;3031618;19;4661;-24
2024/04/17 01:12:07;;;;;;;;;;;21.70;40.90;;;;;;3054257;19;4798;-23
2024/04/17 01:13:08;;;;;;;;;;;21.70;41.00;;;;;;3031931;19;4580;-25
2024/04/17 01:14:08;;;;;;;;;;;21.70;41.00;;;;;;3053893;19;4807;-24
2024/04/17 01:15:09;;;;;;;;;;;21.70;41.00;;;;;;3054314;19;1247;-25
2024/04/17 01:16:10;;;;;;;;;;;21.70;41.00;;;;;;3032509;19;4716;-25
2024/04/17 01:17:10;;;;;;;;;;;21.70;41.00;;;;;;3053864;19;4683;-23
2024/04/17 01:18:11;;;;;;;;;;;21.70;41.00;;;;;;3054212;19;4666;-23
2024/04/17 01:19:12;;;;;;;;;;;21.70;41.10;;;;;;3032794;19;4579;-26
2024/04/17 01:20:12;;;;;;;;;;;21.70;41.10;;;;;;3053576;19;4682;-24
2024/04/17 01:21:13;;;;;;;;;;;21.70;41.10;;;;;;3031668;19;4630;-27
2024/04/17 01:22:14;;;;;;;;;;;21.70;41.10;;;;;;3053169;19;4755;-25
2024/04/17 01:23:14;;;;;;;;;;;21.70;41.00;;;;;;3055086;19;1052;-24
2024/04/17 01:24:15;;;;;;;;;;;21.70;41.10;;;;;;3032736;19;4806;-23
2024/04/17 01:25:15;;;;;;;;;;;21.60;41.20;;;;;;3052884;19;4709;-23
2024/04/17 01:26:16;;;;;;;;;;;21.70;41.20;;;;;;3042488;19;4647;-24
2024/04/17 01:27:17;;;;;;;;;;;21.70;41.20;;;;;;3050885;19;4715;-23
2024/04/17 01:28:17;;;;;;;;;;;21.70;41.10;;;;;;3054534;19;4824;-23
2024/04/17 01:29:18;;;;;;;;;;;21.60;41.10;;;;;;3033033;19;4701;-24
2024/04/17 01:30:18;;;;;;;;;;;21.60;41.20;;;;;;3054196;19;4702;-24
2024/04/17 01:31:19;;;;;;;;;;;21.60;41.10;;;;;;3054707;19;4721;-23
2024/04/17 01:32:20;;;;;;;;;;;21.60;41.20;;;;;;3032403;19;4629;-23
2024/04/17 01:33:20;;;;;;;;;;;21.60;41.10;;;;;;3054082;19;4668;-24
2024/04/17 01:34:21;;;;;;;;;;;21.60;41.20;;;;;;3032646;19;4764;-23
2024/04/17 01:35:22;;;;;;;;;;;21.60;41.20;;;;;;3052209;19;5239;-25
2024/04/17 01:36:22;;;;;;;;;;;21.60;41.20;;;;;;3053993;19;4679;-23
2024/04/17 01:37:23;;;;;;;;;;;21.60;41.20;;;;;;3032556;19;4825;-25
2024/04/17 01:38:23;;;;;;;;;;;21.60;41.20;;;;;;3053450;19;5156;-25
2024/04/17 01:39:24;;;;;;;;;;;21.60;41.20;;;;;;3054544;19;4673;-23
2024/04/17 01:40:25;;;;;;;;;;;21.60;41.20;;;;;;3031964;19;4614;-23
2024/04/17 01:41:25;;;;;;;;;;;21.60;41.30;;;;;;3053865;19;4740;-24
2024/04/17 01:42:26;;;;;;;;;;;21.60;41.20;;;;;;3032247;19;4702;-23
2024/04/17 01:43:29;;;;;;;;;;;21.60;41.20;;;;;;3053024;19;4773;-23
2024/04/17 01:44:30;;;;;;;;;;;21.60;41.20;;;;;;3054326;19;4644;-24
2024/04/17 01:45:31;;;;;;;;;;;21.60;41.30;;;;;;3032592;19;4716;-25
2024/04/17 01:46:32;;;;;;;;;;;21.60;41.30;;;;;;3054601;19;4628;-23
2024/04/17 01:47:32;;;;;;;;;;;21.60;41.30;;;;;;3053857;19;4727;-23
2024/04/17 01:48:34;;;;;;;;;;;21.60;41.20;;;;;;3032330;19;4642;-25
2024/04/17 01:49:36;;;;;;;;;;;21.60;41.40;;;;;;3054055;19;4760;-24
2024/04/17 01:50:37;;;;;;;;;;;21.60;41.30;;;;;;3032663;19;4771;-23
2024/04/17 01:51:38;;;;;;;;;;;21.60;41.30;;;;;;3052859;19;4686;-24
2024/04/17 01:52:39;;;;;;;;;;;21.60;41.30;;;;;;3053985;19;4715;-24
2024/04/17 01:53:40;;;;;;;;;;;21.50;41.30;;;;;;3032248;19;4664;-24
2024/04/17 01:54:40;;;;;;;;;;;21.60;41.30;;;;;;3054402;19;4672;-24
2024/04/17 01:55:41;;;;;;;;;;;21.60;41.30;;;;;;3032422;19;4856;-24
2024/04/17 01:56:42;;;;;;;;;;;21.60;41.30;;;;;;3052260;19;4722;-25
2024/04/17 01:57:42;;;;;;;;;;;21.60;41.30;;;;;;3053827;19;4752;-24
2024/04/17 01:58:43;;;;;;;;;;;21.60;41.30;;;;;;3032062;19;4660;-26
2024/04/17 01:59:44;;;;;;;;;;;21.60;41.30;;;;;;3053334;19;4865;-23
2024/04/17 02:00:45;;;;;;;;;;;21.60;41.30;;;;;;3051079;19;4744;-26
2024/04/17 02:01:45;;;;;;;;;;;21.50;41.30;;;;;;3031064;19;4525;-24
2024/04/17 02:02:46;;;;;;;;;;;21.50;41.30;;;;;;3053919;19;4665;-26
2024/04/17 02:03:47;;;;;;;;;;;21.50;41.40;;;;;;3030928;19;4722;-26
2024/04/17 02:04:48;;;;;;;;;;;21.50;41.40;;;;;;3053557;19;4629;-23
2024/04/17 02:05:48;;;;;;;;;;;21.50;41.40;;;;;;3053320;19;4704;-32
2024/04/17 02:06:49;;;;;;;;;;;21.50;41.40;;;;;;3031372;19;4689;-32
2024/04/17 02:07:50;;;;;;;;;;;21.50;41.40;;;;;;3053565;19;4656;-33
2024/04/17 02:08:50;;;;;;;;;;;21.50;41.40;;;;;;3054389;19;4680;-30
2024/04/17 02:09:53;;;;;;;;;;;21.50;41.40;;;;;;3032351;19;4664;-30
2024/04/17 02:10:54;;;;;;;;;;;21.50;41.40;;;;;;3053788;19;4705;-31
2024/04/17 02:11:55;;;;;;;;;;;21.50;41.50;;;;;;3032635;19;4657;-32
2024/04/17 02:12:55;;;;;;;;;;;21.50;41.50;;;;;;3053939;19;4665;-34
2024/04/17 02:13:56;;;;;;;;;;;21.50;41.50;;;;;;3054164;19;4625;-32
2024/04/17 02:14:56;;;;;;;;;;;19.50;40.40;;;;;;3032396;19;4630;-31
2024/04/17 02:16:04;;;;;;;;;;;21.50;41.50;;;;;;3053194;19;4632;-33
2024/04/17 02:17:04;;;;;;;;;;;21.50;41.50;;;;;;3031041;19;4649;-34
2024/04/17 02:18:05;;;;;;;;;;;21.50;41.50;;;;;;3050836;19;4620;-35
2024/04/17 02:19:06;;;;;;;;;;;21.50;41.50;;;;;;3052435;19;4698;-30
2024/04/17 02:20:07;;;;;;;;;;;21.50;41.50;;;;;;3031515;19;4606;-32
2024/04/17 02:21:08;;;;;;;;;;;21.50;41.60;;;;;;3051611;19;4847;-31
2024/04/17 02:22:08;;;;;;;;;;;21.40;41.60;;;;;;3050748;19;2830;-33
2024/04/17 02:23:09;;;;;;;;;;;21.50;41.70;;;;;;3029863;19;4953;-31
2024/04/17 02:24:10;;;;;;;;;;;21.40;41.60;;;;;;3053514;19;4811;-32
2024/04/17 02:25:10;;;;;;;;;;;21.50;41.60;;;;;;3032599;19;4483;-32
2024/04/17 02:26:11;;;;;;;;;;;21.50;41.70;;;;;;3053761;19;5070;-24
2024/04/17 02:27:11;;;;;;;;;;;21.50;41.70;;;;;;3053729;19;4660;-23
2024/04/17 02:28:12;;;;;;;;;;;21.40;41.60;;;;;;3031387;19;4814;-24
2024/04/17 02:29:13;;;;;;;;;;;21.40;41.60;;;;;;3052782;19;4739;-24
2024/04/17 02:30:13;;;;;;;;;;;21.40;41.60;;;;;;3053525;19;2083;-25
2024/04/17 02:31:14;;;;;;;;;;;21.40;41.60;;;;;;3042903;19;5869;-23
2024/04/17 02:32:15;;;;;;;;;;;21.40;41.70;;;;;;3053715;19;4675;-25
2024/04/17 02:33:15;;;;;;;;;;;21.40;41.60;;;;;;3032332;19;4578;-25
2024/04/17 02:34:16;;;;;;;;;;;21.50;41.70;;;;;;3052935;19;4656;-25
2024/04/17 02:35:16;;;;;;;;;;;21.40;41.60;;;;;;3053042;19;4737;-25
2024/04/17 02:36:17;;;;;;;;;;;21.40;41.60;;;;;;3032331;19;4610;-23
2024/04/17 02:37:18;;;;;;;;;;;21.50;41.70;;;;;;3051917;19;4642;-24
2024/04/17 02:38:18;;;;;;;;;;;21.50;41.70;;;;;;3047393;19;6126;-23
2024/04/17 02:39:20;;;;;;;;;;;21.60;41.70;;;;;;3052313;19;4709;-24
2024/04/17 02:40:20;;;;;;;;;;;21.70;41.60;;;;;;3053225;19;4709;-27
2024/04/17 02:41:21;;;;;;;;;;;21.70;41.50;;;;;;3031267;19;4594;-25
2024/04/17 02:42:22;;;;;;;;;;;21.70;41.40;;;;;;3053760;19;4683;-24
2024/04/17 02:43:22;;;;;;;;;;;21.80;41.30;;;;;;3051910;19;4820;-23
2024/04/17 02:44:23;;;;;;;;;;;21.80;41.30;;;;;;3030908;19;4677;-24
2024/04/17 02:45:23;;;;;;;;;;;21.80;41.10;;;;;;3053070;19;4684;-24
2024/04/17 02:46:24;;;;;;;;;;;21.80;41.10;;;;;;3042780;19;7271;-24
2024/04/17 02:47:25;;;;;;;;;;;21.90;41.20;;;;;;3052948;19;4740;-24
2024/04/17 02:48:25;;;;;;;;;;;21.80;41.00;;;;;;3052014;19;4696;-24
2024/04/17 02:49:26;;;;;;;;;;;21.90;41.10;;;;;;3031257;19;4627;-23
2024/04/17 02:50:27;;;;;;;;;;;21.90;41.10;;;;;;3052816;19;4652;-24
2024/04/17 02:51:27;;;;;;;;;;;21.90;41.10;;;;;;3054346;19;4651;-23
2024/04/17 02:52:28;;;;;;;;;;;21.90;41.00;;;;;;3031774;19;4625;-24
2024/04/17 02:53:29;;;;;;;;;;;21.90;40.90;;;;;;3053598;19;4650;-24
2024/04/17 02:54:29;;;;;;;;;;;22.00;40.90;;;;;;3044641;19;6033;-25
2024/04/17 02:55:30;;;;;;;;;;;22.00;40.80;;;;;;3053242;19;4643;-33
2024/04/17 02:56:30;;;;;;;;;;;22.00;40.80;;;;;;3052594;19;4715;-35
2024/04/17 02:57:31;;;;;;;;;;;22.10;40.90;;;;;;3031566;19;5080;-32
2024/04/17 02:58:32;;;;;;;;;;;22.10;40.80;;;;;;3052543;19;4677;-34
2024/04/17 02:59:32;;;;;;;;;;;22.10;40.80;;;;;;3053054;19;4750;-34
2024/04/17 03:00:33;;;;;;;;;;;22.10;40.70;;;;;;3031110;19;4634;-33
2024/04/17 03:01:34;;;;;;;;;;;22.10;40.70;;;;;;3052353;19;4819;-32
2024/04/17 03:02:34;;;;;;;;;;;22.10;40.80;;;;;;3042864;19;4298;-33
2024/04/17 03:03:35;;;;;;;;;;;22.10;40.70;;;;;;3052191;19;4598;-30
2024/04/17 03:04:35;;;;;;;;;;;22.10;40.70;;;;;;3053202;19;4669;-35
2024/04/17 03:05:36;;;;;;;;;;;22.10;40.70;;;;;;3031788;19;4581;-29
2024/04/17 03:06:37;;;;;;;;;;;22.10;40.70;;;;;;3052821;19;4658;-32
2024/04/17 03:07:37;;;;;;;;;;;22.10;40.60;;;;;;3031051;19;4711;-34
2024/04/17 03:08:38;;;;;;;;;;;22.10;40.50;;;;;;3052799;19;4658;-33
2024/04/17 03:09:39;;;;;;;;;;;22.20;40.50;;;;;;3052899;19;4666;-31
2024/04/17 03:10:39;;;;;;;;;;;22.20;40.30;;;;;;3045070;19;5761;-34
2024/04/17 03:11:40;;;;;;;;;;;22.20;40.20;;;;;;3052630;19;4834;-34
2024/04/17 03:12:41;;;;;;;;;;;22.20;40.20;;;;;;3052286;19;4660;-34
2024/04/17 03:13:41;;;;;;;;;;;22.20;40.20;;;;;;3031821;19;4559;-32
2024/04/17 03:14:42;;;;;;;;;;;22.20;40.10;;;;;;3052856;19;4699;-33
2024/04/17 03:15:43;;;;;;;;;;;22.30;40.10;;;;;;3031293;19;4733;-38
2024/04/17 03:16:46;;;;;;;;;;;22.20;40.10;;;;;;3052034;19;4799;-32
2024/04/17 03:17:47;;;;;;;;;;;22.20;40.10;;;;;;3052405;19;4647;-30
2024/04/17 03:18:47;;;;;;;;;;;22.20;40.00;;;;;;3042749;19;5818;-32
2024/04/17 03:19:48;;;;;;;;;;;22.20;40.00;;;;;;3052398;19;4699;-34
2024/04/17 03:20:49;;;;;;;;;;;22.20;40.10;;;;;;3051959;19;4701;-29
2024/04/17 03:21:49;;;;;;;;;;;22.20;40.10;;;;;;3029693;19;4547;-32
2024/04/17 03:22:50;;;;;;;;;;;22.20;39.90;;;;;;3052784;19;4642;-34
2024/04/17 03:23:51;;;;;;;;;;;22.20;40.00;;;;;;3031425;19;4716;-30
2024/04/17 03:24:51;;;;;;;;;;;22.20;40.00;;;;;;3052898;19;4624;-33
2024/04/17 03:25:56;;;;;;;;;;;22.20;39.90;;;;;;3053008;19;4652;-30
2024/04/17 03:26:56;;;;;;;;;;;22.20;40.00;;;;;;3043310;19;5679;-29
2024/04/17 03:27:57;;;;;;;;;;;22.20;39.90;;;;;;3052901;19;4659;-32
2024/04/17 03:28:57;;;;;;;;;;;22.20;39.90;;;;;;3031636;19;4681;-32
2024/04/17 03:29:58;;;;;;;;;;;22.20;39.80;;;;;;3051862;19;4655;-32
2024/04/17 03:31:01;;;;;;;;;;;22.20;39.70;;;;;;3052738;19;4578;-31
2024/04/17 03:32:05;;;;;;;;;;;22.20;39.70;;;;;;3031635;19;4650;-34
2024/04/17 03:33:06;;;;;;;;;;;22.20;39.70;;;;;;3052928;19;4565;-31
2024/04/17 03:34:06;;;;;;;;;;;22.20;39.80;;;;;;3051881;19;20511;-32
2024/04/17 03:35:08;;;;;;;;;;;22.20;39.70;;;;;;3041638;19;5644;-31
2024/04/17 03:36:08;;;;;;;;;;;22.20;39.70;;;;;;3052445;19;4697;-24
2024/04/17 03:37:11;;;;;;;;;;;22.20;39.70;;;;;;3030686;19;4566;-24
2024/04/17 03:38:11;;;;;;;;;;;22.20;39.70;;;;;;3052743;19;4659;-24
2024/04/17 03:39:12;;;;;;;;;;;22.20;39.70;;;;;;3052547;19;4729;-24
2024/04/17 03:40:12;;;;;;;;;;;22.20;39.70;;;;;;3031048;19;4588;-24
2024/04/17 03:41:13;;;;;;;;;;;22.20;39.70;;;;;;3051806;19;4832;-23
2024/04/17 03:42:14;;;;;;;;;;;22.20;39.70;;;;;;3051471;19;1862;-24
2024/04/17 03:43:14;;;;;;;;;;;21.20;39.10;;;;;;3041927;19;5699;-25
2024/04/17 03:44:15;;;;;;;;;;;22.20;39.60;;;;;;3052777;19;4669;-25
2024/04/17 03:45:16;;;;;;;;;;;22.20;39.60;;;;;;3030946;19;4596;-24
2024/04/17 03:46:16;;;;;;;;;;;22.30;39.60;;;;;;3052429;19;4715;-23
2024/04/17 03:47:17;;;;;;;;;;;22.30;39.60;;;;;;3051951;19;4650;-23
2024/04/17 03:48:17;;;;;;;;;;;22.30;39.50;;;;;;3031760;19;4554;-24
2024/04/17 03:49:18;;;;;;;;;;;22.40;39.40;;;;;;3052580;19;5314;-25
2024/04/17 03:50:19;;;;;;;;;;;22.40;39.20;;;;;;3042957;19;5905;-23
2024/04/17 03:51:19;;;;;;;;;;;22.40;39.10;;;;;;3051930;19;4652;-23
2024/04/17 03:52:20;;;;;;;;;;;22.40;39.10;;;;;;3052864;19;4801;-24
2024/04/17 03:53:20;;;;;;;;;;;22.40;39.10;;;;;;3028245;19;4952;-24
2024/04/17 03:54:21;;;;;;;;;;;22.40;39.10;;;;;;3049353;19;4697;-25
2024/04/17 03:55:22;;;;;;;;;;;22.40;39.10;;;;;;3050675;19;5092;-24
2024/04/17 03:56:22;;;;;;;;;;;22.50;39.10;;;;;;3030913;19;4650;-24
2024/04/17 03:57:23;;;;;;;;;;;22.40;39.00;;;;;;3052692;19;4721;-24
2024/04/17 03:58:24;;;;;;;;;;;22.40;39.00;;;;;;3030667;19;4680;-26
2024/04/17 03:59:24;;;;;;;;;;;22.40;39.00;;;;;;3053221;19;4627;-24
2024/04/17 04:00:25;;;;;;;;;;;22.40;39.00;;;;;;3052325;19;4684;-24
2024/04/17 04:01:26;;;;;;;;;;;22.40;38.90;;;;;;3030835;19;4546;-25
2024/04/17 04:02:26;;;;;;;;;;;22.40;38.90;;;;;;3052869;19;4675;-23
2024/04/17 04:03:27;;;;;;;;;;;22.40;38.90;;;;;;3051004;19;4752;-25
2024/04/17 04:04:28;;;;;;;;;;;22.40;38.90;;;;;;3031283;19;4566;-23
2024/04/17 04:05:28;;;;;;;;;;;22.30;38.90;;;;;;3051486;19;4699;-24
2024/04/17 04:06:29;;;;;;;;;;;22.40;39.00;;;;;;3028288;19;4673;-26
2024/04/17 04:07:30;;;;;;;;;;;22.30;38.90;;;;;;3051835;19;4677;-24
2024/04/17 04:08:30;;;;;;;;;;;22.30;38.80;;;;;;3049924;19;4922;-24
2024/04/17 04:09:31;;;;;;;;;;;22.30;38.90;;;;;;3029224;19;4773;-25
2024/04/17 04:10:32;;;;;;;;;;;22.30;38.90;;;;;;3052510;19;4653;-24
2024/04/17 04:11:33;;;;;;;;;;;22.30;38.90;;;;;;3051997;19;4723;-23
2024/04/17 04:12:33;;;;;;;;;;;22.30;38.90;;;;;;3029372;19;4711;-24
2024/04/17 04:13:34;;;;;;;;;;;22.20;38.80;;;;;;3051456;19;4674;-23
2024/04/17 04:14:34;;;;;;;;;;;22.20;38.90;;;;;;3028937;19;4887;-23
2024/04/17 04:15:35;;;;;;;;;;;22.20;38.90;;;;;;3054022;19;4647;-24
2024/04/17 04:16:36;;;;;;;;;;;22.20;38.90;;;;;;3054324;19;4662;-23
2024/04/17 04:17:36;;;;;;;;;;;22.20;38.90;;;;;;3030099;19;4785;-23
2024/04/17 04:18:37;;;;;;;;;;;22.20;38.90;;;;;;3052194;19;4759;-23
2024/04/17 04:19:37;;;;;;;;;;;22.10;38.90;;;;;;3032464;19;4738;-23
2024/04/17 04:20:38;;;;;;;;;;;22.10;38.90;;;;;;3049542;19;4874;-26
2024/04/17 04:21:39;;;;;;;;;;;22.10;38.90;;;;;;3052082;19;4669;-25
2024/04/17 04:22:39;;;;;;;;;;;22.10;38.90;;;;;;3029886;19;4845;-24
2024/04/17 04:23:40;;;;;;;;;;;22.10;38.90;;;;;;3053636;19;4706;-26
2024/04/17 04:24:41;;;;;;;;;;;22.10;39.00;;;;;;3051472;19;4738;-25
2024/04/17 04:25:41;;;;;;;;;;;22.10;38.90;;;;;;3031458;19;4897;-24
2024/04/17 04:26:42;;;;;;;;;;;22.10;38.90;;;;;;3050903;19;4736;-24
2024/04/17 04:27:43;;;;;;;;;;;22.00;38.90;;;;;;3033315;19;4696;-23
2024/04/17 04:28:46;;;;;;;;;;;22.10;39.10;;;;;;3052148;19;4889;-25
2024/04/17 04:29:47;;;;;;;;;;;22.10;39.10;;;;;;3055191;19;4716;-23
2024/04/17 04:30:47;;;;;;;;;;;22.20;39.00;;;;;;3029875;19;4797;-24
2024/04/17 04:31:48;;;;;;;;;;;22.20;39.00;;;;;;3054906;19;4658;-23
2024/04/17 04:32:48;;;;;;;;;;;22.20;38.90;;;;;;3055040;19;4674;-23
2024/04/17 04:33:49;;;;;;;;;;;22.20;38.90;;;;;;3033297;19;4530;-23
2024/04/17 04:34:50;;;;;;;;;;;22.20;38.90;;;;;;3053909;19;4683;-27
2024/04/17 04:35:50;;;;;;;;;;;22.30;38.80;;;;;;3033410;19;4663;-26
2024/04/17 04:36:51;;;;;;;;;;;22.30;38.70;;;;;;3053047;19;4681;-23
2024/04/17 04:37:51;;;;;;;;;;;22.20;38.60;;;;;;3053928;19;4856;-22
2024/04/17 04:38:52;;;;;;;;;;;22.30;38.60;;;;;;3032787;19;4608;-24
2024/04/17 04:39:53;;;;;;;;;;;22.20;38.50;;;;;;3054529;19;4626;-23
2024/04/17 04:40:53;;;;;;;;;;;22.30;38.60;;;;;;3053976;19;4676;-24
2024/04/17 04:41:54;;;;;;;;;;;22.30;38.50;;;;;;3031689;19;4580;-27
2024/04/17 04:42:55;;;;;;;;;;;22.20;38.50;;;;;;3052405;19;4694;-24
2024/04/17 04:43:55;;;;;;;;;;;22.20;38.50;;;;;;3032885;19;4748;-23
2024/04/17 04:44:56;;;;;;;;;;;22.20;38.50;;;;;;3053822;19;4624;-26
2024/04/17 04:45:57;;;;;;;;;;;22.20;38.40;;;;;;3054668;19;4613;-23
2024/04/17 04:47:01;;;;;;;;;;;22.20;38.50;;;;;;3030415;19;4755;-25
2024/04/17 04:48:01;;;;;;;;;;;22.20;38.40;;;;;;3054373;19;4633;-24
2024/04/17 04:49:02;;;;;;;;;;;22.20;38.50;;;;;;3031145;19;4658;-23
2024/04/17 04:50:03;;;;;;;;;;;22.10;38.40;;;;;;3052919;19;4602;-23
2024/04/17 04:51:03;;;;;;;;;;;22.10;38.40;;;;;;3053027;19;5153;-23
2024/04/17 04:52:04;;;;;;;;;;;22.10;38.40;;;;;;3032468;19;4665;-23
2024/04/17 04:53:05;;;;;;;;;;;22.10;38.40;;;;;;3051994;19;4773;-26
2024/04/17 04:54:05;;;;;;;;;;;22.10;38.50;;;;;;3052638;19;5019;-23
2024/04/17 04:55:06;;;;;;;;;;;22.20;38.50;;;;;;3030295;19;22055;-24
2024/04/17 04:56:07;;;;;;;;;;;22.20;38.50;;;;;;3053084;19;5025;-25
2024/04/17 04:57:07;;;;;;;;;;;22.20;38.30;;;;;;3032774;19;4186;-23
2024/04/17 04:58:08;;;;;;;;;;;22.30;38.30;;;;;;3053803;19;4632;-25
2024/04/17 04:59:09;;;;;;;;;;;22.30;38.20;;;;;;3053575;19;4633;-24
2024/04/17 05:00:10;;;;;;;;;;;22.30;38.10;;;;;;3031469;19;4729;-26
2024/04/17 05:01:11;;;;;;;;;;;22.30;38.10;;;;;;3053403;19;4829;-25
2024/04/17 05:02:11;;;;;;;;;;;22.30;38.00;;;;;;3052873;19;5209;-23
2024/04/17 05:03:12;;;;;;;;;;;22.40;38.00;;;;;;3031858;19;4668;-24
2024/04/17 05:04:12;;;;;;;;;;;22.40;37.90;;;;;;3054437;19;4669;-24
2024/04/17 05:05:13;;;;;;;;;;;22.40;37.90;;;;;;3033343;19;4337;-24
2024/04/17 05:06:14;;;;;;;;;;;22.40;37.90;;;;;;3054311;19;4646;-27
2024/04/17 05:07:15;;;;;;;;;;;22.40;38.00;;;;;;3053827;19;4821;-23
2024/04/17 05:08:16;;;;;;;;;;;22.40;37.80;;;;;;3030421;19;4730;-25
2024/04/17 05:09:16;;;;;;;;;;;22.40;37.80;;;;;;3052516;19;4700;-23
2024/04/17 05:10:17;;;;;;;;;;;22.30;37.70;;;;;;3030255;19;4780;-23
2024/04/17 05:11:18;;;;;;;;;;;22.30;37.80;;;;;;3054519;19;4828;-24
2024/04/17 05:12:18;;;;;;;;;;;22.40;37.80;;;;;;3050822;19;4659;-22
2024/04/17 05:13:19;;;;;;;;;;;22.40;37.80;;;;;;3031825;19;4641;-25
2024/04/17 05:14:20;;;;;;;;;;;22.30;37.80;;;;;;3053804;19;4863;-25
2024/04/17 05:15:20;;;;;;;;;;;22.30;37.90;;;;;;3052021;19;4666;-26
2024/04/17 05:16:21;;;;;;;;;;;22.30;37.80;;;;;;3031903;19;4566;-23
2024/04/17 05:17:21;;;;;;;;;;;22.30;37.80;;;;;;3054778;19;4695;-23
2024/04/17 05:18:22;;;;;;;;;;;22.30;37.80;;;;;;3028387;19;4689;-23
2024/04/17 05:19:23;;;;;;;;;;;22.30;37.80;;;;;;3052296;19;4745;-24
2024/04/17 05:20:23;;;;;;;;;;;22.30;37.70;;;;;;3052187;19;4837;-23
2024/04/17 05:21:24;;;;;;;;;;;22.30;37.90;;;;;;3033975;19;4477;-24
2024/04/17 05:22:25;;;;;;;;;;;22.30;37.80;;;;;;3052824;19;4760;-25
2024/04/17 05:23:25;;;;;;;;;;;22.30;37.80;;;;;;3054344;19;4687;-24
2024/04/17 05:24:26;;;;;;;;;;;22.30;37.80;;;;;;3032017;19;5090;-24
2024/04/17 05:25:26;;;;;;;;;;;22.30;37.80;;;;;;3054347;19;4675;-24
2024/04/17 05:26:27;;;;;;;;;;;22.30;37.80;;;;;;3030308;19;4782;-23
2024/04/17 05:27:28;;;;;;;;;;;22.30;37.80;;;;;;3052284;19;4639;-24
2024/04/17 05:28:28;;;;;;;;;;;22.30;38.00;;;;;;3051503;19;4690;-23
2024/04/17 05:29:29;;;;;;;;;;;22.30;38.00;;;;;;3031271;19;4546;-23
2024/04/17 05:30:30;;;;;;;;;;;22.30;37.90;;;;;;3054209;19;4647;-23
2024/04/17 05:31:32;;;;;;;;;;;22.30;37.80;;;;;;3054304;19;4671;-23
2024/04/17 05:32:32;;;;;;;;;;;22.40;37.80;;;;;;3032574;19;4595;-24
2024/04/17 05:33:33;;;;;;;;;;;22.40;37.70;;;;;;3053211;19;4690;-24
2024/04/17 05:34:33;;;;;;;;;;;22.40;37.60;;;;;;3032374;19;4937;-23
2024/04/17 05:35:34;;;;;;;;;;;22.40;37.60;;;;;;3054573;19;4648;-24
2024/04/17 05:36:36;;;;;;;;;;;22.40;37.50;;;;;;3054630;19;4637;-26
2024/04/17 05:37:37;;;;;;;;;;;22.50;37.50;;;;;;3033520;19;4583;-25
2024/04/17 05:38:38;;;;;;;;;;;22.40;37.50;;;;;;3053890;19;4786;-23
2024/04/17 05:39:39;;;;;;;;;;;22.50;37.50;;;;;;3033322;19;4694;-24
2024/04/17 05:40:44;;;;;;;;;;;22.50;37.50;;;;;;3054297;19;4805;-23
2024/04/17 05:41:44;;;;;;;;;;;22.50;37.50;;;;;;3053427;19;4645;-23
2024/04/17 05:42:45;;;;;;;;;;;22.40;37.50;;;;;;3031588;19;4682;-24
2024/04/17 05:43:45;;;;;;;;;;;22.30;37.50;;;;;;3054327;19;4622;-24
2024/04/17 05:44:46;;;;;;;;;;;22.40;37.60;;;;;;3055225;19;4608;-25
2024/04/17 05:45:47;;;;;;;;;;;22.40;37.50;;;;;;3033019;19;4755;-34
2024/04/17 05:46:47;;;;;;;;;;;22.40;37.60;;;;;;3052422;19;4653;-32
2024/04/17 05:47:48;;;;;;;;;;;22.50;37.70;;;;;;3033135;19;4734;-33
2024/04/17 05:48:49;;;;;;;;;;;22.40;37.60;;;;;;3054390;19;4665;-33
2024/04/17 05:49:49;;;;;;;;;;;22.40;37.70;;;;;;3054762;19;4614;-33
2024/04/17 05:50:50;;;;;;;;;;;22.30;37.70;;;;;;3033493;19;4699;-31
2024/04/17 05:51:51;;;;;;;;;;;22.40;37.80;;;;;;3053645;19;4723;-31
2024/04/17 05:52:51;;;;;;;;;;;22.30;37.70;;;;;;3054919;19;4713;-32
2024/04/17 05:53:54;;;;;;;;;;;22.30;37.80;;;;;;3032579;19;4721;-34
2024/04/17 05:54:54;;;;;;;;;;;22.30;37.80;;;;;;3054296;19;4677;-33
2024/04/17 05:55:55;;;;;;;;;;;22.20;37.80;;;;;;3034108;19;4704;-23
2024/04/17 05:56:56;;;;;;;;;;;22.30;37.90;;;;;;3052094;19;4682;-24
2024/04/17 05:57:56;;;;;;;;;;;22.20;37.90;;;;;;3053083;19;4624;-25
2024/04/17 05:58:57;;;;;;;;;;;22.20;37.90;;;;;;3033143;19;4800;-26